Alford, Florida
Current Conditions -  °F | °C
As of 4:01 PM on Monday 22 Dec 2014 (Local Time) from KMAI Reporting Station
Overcast Overcast  
Wind Chill: 15°   Ceiling: 1600
Heat Index: 15°   Visibility: 10mi
Dew Point: 15°   Wind: 7mph
Humidity: 100%   Direction: 80°E
Pressure: 29.83"   Gusts: NA
Location:  30.69°N, 85.39°W
Report Text: KMAI 222201Z AUTO 08006KT 10SM SCT004 OVC016 15/15 A2983 RMK AO2 T01500150 $
Loading
Personal Weather Stations






























Interactive Weather Map New forecast layout! Learn more

10-Day Weather Forecast

Advertisements
Track Severe Weather on mobile